sensor_id;sensor_type;location;lat;lon;timestamp;P1;durP1;ratioP1;P2;durP2;ratioP2
31083;SDS011;36333;51.382;0.016;2022-11-25T00:01:32;0.00;;;0.00;;
31083;SDS011;36333;51.382;0.016;2022-11-25T00:04:01;0.00;;;0.00;;
31083;SDS011;36333;51.382;0.016;2022-11-25T00:09:03;0.00;;;0.00;;
31083;SDS011;36333;51.382;0.016;2022-11-25T00:11:36;0.00;;;0.00;;
31083;SDS011;36333;51.382;0.016;2022-11-25T00:14:06;0.00;;;0.00;;
31083;SDS011;36333;51.382;0.016;2022-11-25T00:16:37;0.00;;;0.00;;
31083;SDS011;36333;51.382;0.016;2022-11-25T00:19:16;0.00;;;0.00;;
31083;SDS011;36333;51.382;0.016;2022-11-25T00:21:46;0.00;;;0.00;;
31083;SDS011;36333;51.382;0.016;2022-11-25T00:24:15;0.00;;;0.00;;
31083;SDS011;36333;51.382;0.016;2022-11-25T00:26:42;0.00;;;0.00;;
31083;SDS011;36333;51.382;0.016;2022-11-25T00:29:10;0.00;;;0.00;;
31083;SDS011;36333;51.382;0.016;2022-11-25T00:31:40;0.00;;;0.00;;
31083;SDS011;36333;51.382;0.016;2022-11-25T00:34:11;0.00;;;0.00;;
31083;SDS011;36333;51.382;0.016;2022-11-25T00:36:39;0.00;;;0.00;;
31083;SDS011;36333;51.382;0.016;2022-11-25T00:39:11;0.00;;;0.00;;
31083;SDS011;36333;51.382;0.016;2022-11-25T00:41:41;0.00;;;0.00;;
31083;SDS011;36333;51.382;0.016;2022-11-25T00:44:28;0.00;;;0.00;;
31083;SDS011;36333;51.382;0.016;2022-11-25T00:47:08;0.00;;;0.00;;
31083;SDS011;36333;51.382;0.016;2022-11-25T00:49:46;0.00;;;0.00;;
31083;SDS011;36333;51.382;0.016;2022-11-25T00:52:29;0.00;;;0.00;;
31083;SDS011;36333;51.382;0.016;2022-11-25T00:55:04;0.10;;;0.10;;
31083;SDS011;36333;51.382;0.016;2022-11-25T00:57:36;0.00;;;0.00;;
31083;SDS011;36333;51.382;0.016;2022-11-25T01:00:04;0.00;;;0.00;;
31083;SDS011;36333;51.382;0.016;2022-11-25T01:02:32;0.00;;;0.00;;
31083;SDS011;36333;51.382;0.016;2022-11-25T01:05:00;0.00;;;0.00;;
31083;SDS011;36333;51.382;0.016;2022-11-25T01:07:27;0.00;;;0.00;;
31083;SDS011;36333;51.382;0.016;2022-11-25T01:09:55;0.00;;;0.00;;
31083;SDS011;36333;51.382;0.016;2022-11-25T01:12:24;0.00;;;0.00;;
31083;SDS011;36333;51.382;0.016;2022-11-25T01:14:52;0.00;;;0.00;;
31083;SDS011;36333;51.382;0.016;2022-11-25T01:17:19;0.00;;;0.00;;
31083;SDS011;36333;51.382;0.016;2022-11-25T01:19:47;0.00;;;0.00;;
31083;SDS011;36333;51.382;0.016;2022-11-25T01:22:15;0.00;;;0.00;;
31083;SDS011;36333;51.382;0.016;2022-11-25T01:24:42;0.00;;;0.00;;
31083;SDS011;36333;51.382;0.016;2022-11-25T01:27:10;0.00;;;0.00;;
31083;SDS011;36333;51.382;0.016;2022-11-25T01:29:37;0.00;;;0.00;;
31083;SDS011;36333;51.382;0.016;2022-11-25T01:32:07;0.00;;;0.00;;
31083;SDS011;36333;51.382;0.016;2022-11-25T01:34:35;0.00;;;0.00;;
31083;SDS011;36333;51.382;0.016;2022-11-25T01:37:03;0.00;;;0.00;;
31083;SDS011;36333;51.382;0.016;2022-11-25T01:39:31;0.00;;;0.00;;
31083;SDS011;36333;51.382;0.016;2022-11-25T01:42:00;0.00;;;0.00;;
31083;SDS011;36333;51.382;0.016;2022-11-25T01:47:12;49.08;;;4.75;;
31083;SDS011;36333;51.382;0.016;2022-11-25T01:50:02;57.80;;;5.10;;
31083;SDS011;36333;51.382;0.016;2022-11-25T01:52:34;53.65;;;4.85;;
31083;SDS011;36333;51.382;0.016;2022-11-25T01:55:10;51.83;;;5.45;;
31083;SDS011;36333;51.382;0.016;2022-11-25T01:57:49;56.22;;;4.80;;
31083;SDS011;36333;51.382;0.016;2022-11-25T02:00:24;64.70;;;4.97;;
31083;SDS011;36333;51.382;0.016;2022-11-25T02:02:52;66.07;;;5.57;;
31083;SDS011;36333;51.382;0.016;2022-11-25T02:05:26;63.60;;;5.80;;
31083;SDS011;36333;51.382;0.016;2022-11-25T02:08:00;60.80;;;5.57;;
31083;SDS011;36333;51.382;0.016;2022-11-25T02:10:29;59.83;;;5.90;;
31083;SDS011;36333;51.382;0.016;2022-11-25T02:12:57;60.67;;;6.05;;
31083;SDS011;36333;51.382;0.016;2022-11-25T02:17:55;56.58;;;5.32;;
31083;SDS011;36333;51.382;0.016;2022-11-25T02:20:23;65.10;;;4.97;;
31083;SDS011;36333;51.382;0.016;2022-11-25T02:25:28;77.30;;;6.68;;
31083;SDS011;36333;51.382;0.016;2022-11-25T02:28:08;57.15;;;5.07;;
31083;SDS011;36333;51.382;0.016;2022-11-25T02:30:39;71.53;;;5.70;;
31083;SDS011;36333;51.382;0.016;2022-11-25T02:33:07;59.08;;;5.88;;
31083;SDS011;36333;51.382;0.016;2022-11-25T02:35:36;71.18;;;5.70;;
31083;SDS011;36333;51.382;0.016;2022-11-25T02:38:21;71.82;;;6.43;;
31083;SDS011;36333;51.382;0.016;2022-11-25T02:41:02;51.40;;;5.22;;
31083;SDS011;36333;51.382;0.016;2022-11-25T02:43:34;65.57;;;6.32;;
31083;SDS011;36333;51.382;0.016;2022-11-25T02:46:06;77.85;;;6.13;;
31083;SDS011;36333;51.382;0.016;2022-11-25T02:48:36;69.60;;;5.35;;
31083;SDS011;36333;51.382;0.016;2022-11-25T02:51:26;61.25;;;5.68;;
31083;SDS011;36333;51.382;0.016;2022-11-25T02:53:57;69.18;;;6.45;;
31083;SDS011;36333;51.382;0.016;2022-11-25T02:56:28;67.57;;;5.40;;
31083;SDS011;36333;51.382;0.016;2022-11-25T02:59:04;69.35;;;6.28;;
31083;SDS011;36333;51.382;0.016;2022-11-25T03:01:32;71.60;;;6.35;;
31083;SDS011;36333;51.382;0.016;2022-11-25T03:04:04;57.28;;;5.22;;
31083;SDS011;36333;51.382;0.016;2022-11-25T03:06:33;66.00;;;6.07;;
31083;SDS011;36333;51.382;0.016;2022-11-25T03:09:01;60.15;;;6.13;;
31083;SDS011;36333;51.382;0.016;2022-11-25T03:11:29;65.25;;;6.20;;
31083;SDS011;36333;51.382;0.016;2022-11-25T03:14:16;69.13;;;5.72;;
31083;SDS011;36333;51.382;0.016;2022-11-25T03:16:44;64.10;;;6.20;;
31083;SDS011;36333;51.382;0.016;2022-11-25T03:19:11;76.65;;;6.43;;
31083;SDS011;36333;51.382;0.016;2022-11-25T03:21:39;86.63;;;6.35;;
31083;SDS011;36333;51.382;0.016;2022-11-25T03:24:06;70.40;;;6.40;;
31083;SDS011;36333;51.382;0.016;2022-11-25T03:26:34;73.22;;;6.30;;
31083;SDS011;36333;51.382;0.016;2022-11-25T03:29:02;66.05;;;5.82;;
31083;SDS011;36333;51.382;0.016;2022-11-25T03:31:30;100.72;;;7.35;;
31083;SDS011;36333;51.382;0.016;2022-11-25T03:33:57;80.10;;;6.80;;
31083;SDS011;36333;51.382;0.016;2022-11-25T03:36:25;71.07;;;6.22;;
31083;SDS011;36333;51.382;0.016;2022-11-25T03:38:52;67.95;;;6.45;;
31083;SDS011;36333;51.382;0.016;2022-11-25T03:41:20;71.70;;;6.05;;
31083;SDS011;36333;51.382;0.016;2022-11-25T03:43:47;85.13;;;7.15;;
31083;SDS011;36333;51.382;0.016;2022-11-25T03:46:16;87.20;;;6.22;;
31083;SDS011;36333;51.382;0.016;2022-11-25T03:48:44;74.53;;;6.10;;
31083;SDS011;36333;51.382;0.016;2022-11-25T03:51:12;73.03;;;6.22;;
31083;SDS011;36333;51.382;0.016;2022-11-25T03:53:39;61.83;;;6.75;;
31083;SDS011;36333;51.382;0.016;2022-11-25T03:56:08;75.85;;;5.93;;
31083;SDS011;36333;51.382;0.016;2022-11-25T03:58:36;68.90;;;6.13;;
31083;SDS011;36333;51.382;0.016;2022-11-25T04:01:05;53.85;;;5.70;;
31083;SDS011;36333;51.382;0.016;2022-11-25T04:03:32;57.53;;;6.22;;
31083;SDS011;36333;51.382;0.016;2022-11-25T04:06:00;61.10;;;6.20;;
31083;SDS011;36333;51.382;0.016;2022-11-25T04:08:29;57.42;;;5.40;;
31083;SDS011;36333;51.382;0.016;2022-11-25T04:11:00;59.72;;;5.22;;
31083;SDS011;36333;51.382;0.016;2022-11-25T04:13:31;59.67;;;5.97;;
31083;SDS011;36333;51.382;0.016;2022-11-25T04:16:01;65.40;;;6.35;;
31083;SDS011;36333;51.382;0.016;2022-11-25T04:18:29;63.42;;;4.93;;
31083;SDS011;36333;51.382;0.016;2022-11-25T04:20:58;71.70;;;5.75;;
31083;SDS011;36333;51.382;0.016;2022-11-25T04:23:28;67.93;;;5.72;;
31083;SDS011;36333;51.382;0.016;2022-11-25T04:26:00;70.07;;;5.95;;
31083;SDS011;36333;51.382;0.016;2022-11-25T04:28:35;66.82;;;5.22;;
31083;SDS011;36333;51.382;0.016;2022-11-25T04:31:06;60.72;;;6.22;;
31083;SDS011;36333;51.382;0.016;2022-11-25T04:33:37;75.15;;;6.25;;
31083;SDS011;36333;51.382;0.016;2022-11-25T04:36:06;66.28;;;5.60;;
31083;SDS011;36333;51.382;0.016;2022-11-25T04:38:34;63.83;;;5.93;;
31083;SDS011;36333;51.382;0.016;2022-11-25T04:41:03;57.10;;;5.70;;
31083;SDS011;36333;51.382;0.016;2022-11-25T04:43:37;66.45;;;5.72;;
31083;SDS011;36333;51.382;0.016;2022-11-25T04:46:13;55.13;;;5.68;;
31083;SDS011;36333;51.382;0.016;2022-11-25T04:48:48;66.38;;;5.93;;
31083;SDS011;36333;51.382;0.016;2022-11-25T04:51:17;67.13;;;6.32;;
31083;SDS011;36333;51.382;0.016;2022-11-25T04:53:48;59.70;;;5.82;;
31083;SDS011;36333;51.382;0.016;2022-11-25T04:56:17;72.18;;;6.07;;
31083;SDS011;36333;51.382;0.016;2022-11-25T04:58:48;61.35;;;5.70;;
31083;SDS011;36333;51.382;0.016;2022-11-25T05:01:38;63.70;;;5.22;;
31083;SDS011;36333;51.382;0.016;2022-11-25T05:04:21;60.90;;;5.47;;
31083;SDS011;36333;51.382;0.016;2022-11-25T05:06:48;80.13;;;5.35;;
31083;SDS011;36333;51.382;0.016;2022-11-25T05:09:18;59.08;;;6.10;;
31083;SDS011;36333;51.382;0.016;2022-11-25T05:11:56;72.80;;;5.75;;
31083;SDS011;36333;51.382;0.016;2022-11-25T05:14:25;54.58;;;5.32;;
31083;SDS011;36333;51.382;0.016;2022-11-25T05:16:52;65.30;;;6.45;;
31083;SDS011;36333;51.382;0.016;2022-11-25T05:19:20;64.38;;;6.00;;
31083;SDS011;36333;51.382;0.016;2022-11-25T05:21:48;71.70;;;5.93;;
31083;SDS011;36333;51.382;0.016;2022-11-25T05:24:17;63.95;;;5.55;;
31083;SDS011;36333;51.382;0.016;2022-11-25T05:26:49;59.88;;;5.65;;
31083;SDS011;36333;51.382;0.016;2022-11-25T05:29:18;58.67;;;5.30;;
31083;SDS011;36333;51.382;0.016;2022-11-25T05:31:46;57.40;;;5.95;;
31083;SDS011;36333;51.382;0.016;2022-11-25T05:34:15;55.58;;;5.55;;
31083;SDS011;36333;51.382;0.016;2022-11-25T05:36:44;52.72;;;5.07;;
31083;SDS011;36333;51.382;0.016;2022-11-25T05:39:12;57.50;;;5.05;;
31083;SDS011;36333;51.382;0.016;2022-11-25T05:42:02;66.95;;;6.07;;
31083;SDS011;36333;51.382;0.016;2022-11-25T05:44:30;68.00;;;5.80;;
31083;SDS011;36333;51.382;0.016;2022-11-25T05:46:58;56.13;;;5.75;;
31083;SDS011;36333;51.382;0.016;2022-11-25T05:49:25;68.95;;;6.18;;
31083;SDS011;36333;51.382;0.016;2022-11-25T05:51:52;66.22;;;5.00;;
31083;SDS011;36333;51.382;0.016;2022-11-25T05:54:24;55.50;;;6.18;;
31083;SDS011;36333;51.382;0.016;2022-11-25T05:56:51;65.05;;;5.13;;
31083;SDS011;36333;51.382;0.016;2022-11-25T05:59:25;67.47;;;5.57;;
31083;SDS011;36333;51.382;0.016;2022-11-25T06:02:18;50.28;;;4.80;;
31083;SDS011;36333;51.382;0.016;2022-11-25T06:04:46;56.53;;;4.72;;
31083;SDS011;36333;51.382;0.016;2022-11-25T06:07:14;54.53;;;6.13;;
31083;SDS011;36333;51.382;0.016;2022-11-25T06:09:44;64.78;;;4.82;;
31083;SDS011;36333;51.382;0.016;2022-11-25T06:12:12;56.10;;;5.53;;
31083;SDS011;36333;51.382;0.016;2022-11-25T06:14:46;52.75;;;5.10;;
31083;SDS011;36333;51.382;0.016;2022-11-25T06:17:14;54.17;;;5.45;;
31083;SDS011;36333;51.382;0.016;2022-11-25T06:20:01;59.65;;;5.35;;
31083;SDS011;36333;51.382;0.016;2022-11-25T06:22:30;56.80;;;4.90;;
31083;SDS011;36333;51.382;0.016;2022-11-25T06:24:57;57.47;;;5.28;;
31083;SDS011;36333;51.382;0.016;2022-11-25T06:27:32;50.55;;;5.10;;
31083;SDS011;36333;51.382;0.016;2022-11-25T06:30:19;55.65;;;4.63;;
31083;SDS011;36333;51.382;0.016;2022-11-25T06:33:05;44.45;;;4.70;;
31083;SDS011;36333;51.382;0.016;2022-11-25T06:35:32;55.55;;;4.78;;
31083;SDS011;36333;51.382;0.016;2022-11-25T06:38:01;53.28;;;4.93;;
31083;SDS011;36333;51.382;0.016;2022-11-25T06:40:29;58.00;;;4.80;;
31083;SDS011;36333;51.382;0.016;2022-11-25T06:42:57;50.95;;;4.38;;
31083;SDS011;36333;51.382;0.016;2022-11-25T06:45:24;65.47;;;5.45;;
31083;SDS011;36333;51.382;0.016;2022-11-25T06:47:52;62.50;;;4.80;;
31083;SDS011;36333;51.382;0.016;2022-11-25T06:50:19;56.67;;;5.15;;
31083;SDS011;36333;51.382;0.016;2022-11-25T06:52:47;46.67;;;4.90;;
31083;SDS011;36333;51.382;0.016;2022-11-25T06:55:15;53.35;;;5.40;;
31083;SDS011;36333;51.382;0.016;2022-11-25T07:00:10;63.65;;;5.32;;
31083;SDS011;36333;51.382;0.016;2022-11-25T07:02:38;54.40;;;5.10;;
31083;SDS011;36333;51.382;0.016;2022-11-25T07:05:14;52.20;;;4.72;;
31083;SDS011;36333;51.382;0.016;2022-11-25T07:07:42;58.42;;;6.32;;
31083;SDS011;36333;51.382;0.016;2022-11-25T07:10:10;46.30;;;4.60;;
31083;SDS011;36333;51.382;0.016;2022-11-25T07:12:37;46.13;;;4.60;;
31083;SDS011;36333;51.382;0.016;2022-11-25T07:15:06;58.08;;;5.25;;
31083;SDS011;36333;51.382;0.016;2022-11-25T07:17:33;57.97;;;4.70;;
31083;SDS011;36333;51.382;0.016;2022-11-25T07:20:01;59.45;;;5.00;;
31083;SDS011;36333;51.382;0.016;2022-11-25T07:22:29;64.43;;;5.05;;
31083;SDS011;36333;51.382;0.016;2022-11-25T07:25:07;46.03;;;4.22;;
31083;SDS011;36333;51.382;0.016;2022-11-25T07:27:38;59.70;;;4.93;;
31083;SDS011;36333;51.382;0.016;2022-11-25T07:30:06;49.80;;;5.65;;
31083;SDS011;36333;51.382;0.016;2022-11-25T07:32:54;58.00;;;4.93;;
31083;SDS011;36333;51.382;0.016;2022-11-25T07:35:22;48.42;;;4.57;;
31083;SDS011;36333;51.382;0.016;2022-11-25T07:37:50;41.53;;;4.45;;
31083;SDS011;36333;51.382;0.016;2022-11-25T07:40:20;41.28;;;4.72;;
31083;SDS011;36333;51.382;0.016;2022-11-25T07:42:48;45.50;;;4.50;;
31083;SDS011;36333;51.382;0.016;2022-11-25T07:45:15;64.22;;;6.82;;
31083;SDS011;36333;51.382;0.016;2022-11-25T07:47:44;39.72;;;4.43;;
31083;SDS011;36333;51.382;0.016;2022-11-25T07:53:34;44.88;;;4.10;;
31083;SDS011;36333;51.382;0.016;2022-11-25T07:56:01;58.22;;;5.53;;
31083;SDS011;36333;51.382;0.016;2022-11-25T07:58:29;39.40;;;4.15;;
31083;SDS011;36333;51.382;0.016;2022-11-25T08:01:16;56.53;;;4.90;;
31083;SDS011;36333;51.382;0.016;2022-11-25T08:07:02;57.75;;;5.78;;
31083;SDS011;36333;51.382;0.016;2022-11-25T08:09:32;47.78;;;4.25;;
31083;SDS011;36333;51.382;0.016;2022-11-25T08:12:00;42.88;;;4.22;;
31083;SDS011;36333;51.382;0.016;2022-11-25T08:15:02;45.13;;;5.47;;
31083;SDS011;36333;51.382;0.016;2022-11-25T08:17:30;36.60;;;3.50;;
31083;SDS011;36333;51.382;0.016;2022-11-25T08:19:57;40.67;;;4.68;;
31083;SDS011;36333;51.382;0.016;2022-11-25T08:22:25;46.75;;;5.18;;
31083;SDS011;36333;51.382;0.016;2022-11-25T08:24:53;45.95;;;4.13;;
31083;SDS011;36333;51.382;0.016;2022-11-25T08:27:21;42.08;;;4.20;;
31083;SDS011;36333;51.382;0.016;2022-11-25T08:29:57;43.33;;;4.60;;
31083;SDS011;36333;51.382;0.016;2022-11-25T08:32:25;42.72;;;3.97;;
31083;SDS011;36333;51.382;0.016;2022-11-25T08:34:53;42.60;;;4.20;;
31083;SDS011;36333;51.382;0.016;2022-11-25T08:37:23;35.97;;;3.95;;
31083;SDS011;36333;51.382;0.016;2022-11-25T08:39:53;40.83;;;3.95;;
31083;SDS011;36333;51.382;0.016;2022-11-25T08:44:52;32.95;;;4.20;;
31083;SDS011;36333;51.382;0.016;2022-11-25T08:47:21;42.63;;;3.45;;
31083;SDS011;36333;51.382;0.016;2022-11-25T08:49:50;35.00;;;3.60;;
31083;SDS011;36333;51.382;0.016;2022-11-25T08:52:21;38.50;;;3.83;;
31083;SDS011;36333;51.382;0.016;2022-11-25T08:54:51;47.05;;;3.97;;
31083;SDS011;36333;51.382;0.016;2022-11-25T08:57:23;43.03;;;3.95;;
31083;SDS011;36333;51.382;0.016;2022-11-25T08:59:51;32.45;;;3.85;;
31083;SDS011;36333;51.382;0.016;2022-11-25T09:02:21;38.67;;;4.00;;
31083;SDS011;36333;51.382;0.016;2022-11-25T09:04:48;37.15;;;3.67;;
31083;SDS011;36333;51.382;0.016;2022-11-25T09:07:16;30.35;;;3.30;;
31083;SDS011;36333;51.382;0.016;2022-11-25T09:09:44;39.40;;;3.88;;
31083;SDS011;36333;51.382;0.016;2022-11-25T09:12:19;35.35;;;3.22;;
31083;SDS011;36333;51.382;0.016;2022-11-25T09:14:47;31.38;;;3.83;;
31083;SDS011;36333;51.382;0.016;2022-11-25T09:17:16;33.17;;;3.75;;
31083;SDS011;36333;51.382;0.016;2022-11-25T09:19:46;28.85;;;3.30;;
31083;SDS011;36333;51.382;0.016;2022-11-25T09:22:14;29.30;;;2.97;;
31083;SDS011;36333;51.382;0.016;2022-11-25T09:24:43;30.10;;;3.72;;
31083;SDS011;36333;51.382;0.016;2022-11-25T09:27:14;32.33;;;3.33;;
31083;SDS011;36333;51.382;0.016;2022-11-25T09:29:46;24.20;;;3.25;;
31083;SDS011;36333;51.382;0.016;2022-11-25T09:32:14;21.63;;;3.20;;
31083;SDS011;36333;51.382;0.016;2022-11-25T09:34:42;30.50;;;3.30;;
31083;SDS011;36333;51.382;0.016;2022-11-25T09:37:10;37.80;;;3.92;;
31083;SDS011;36333;51.382;0.016;2022-11-25T09:39:38;34.67;;;3.53;;
31083;SDS011;36333;51.382;0.016;2022-11-25T09:45:12;30.50;;;3.58;;
31083;SDS011;36333;51.382;0.016;2022-11-25T09:48:27;32.35;;;3.30;;
31083;SDS011;36333;51.382;0.016;2022-11-25T09:54:11;33.45;;;3.03;;
31083;SDS011;36333;51.382;0.016;2022-11-25T09:56:52;26.77;;;3.35;;
31083;SDS011;36333;51.382;0.016;2022-11-25T09:59:39;32.90;;;3.35;;
31083;SDS011;36333;51.382;0.016;2022-11-25T10:02:30;26.95;;;3.67;;
31083;SDS011;36333;51.382;0.016;2022-11-25T10:05:16;30.52;;;3.55;;
31083;SDS011;36333;51.382;0.016;2022-11-25T10:08:27;25.00;;;3.03;;
31083;SDS011;36333;51.382;0.016;2022-11-25T10:22:13;26.75;;;4.05;;
31083;SDS011;36333;51.382;0.016;2022-11-25T10:24:57;27.90;;;3.70;;
31083;SDS011;36333;51.382;0.016;2022-11-25T10:30:31;32.75;;;4.00;;
31083;SDS011;36333;51.382;0.016;2022-11-25T10:36:06;36.08;;;3.50;;
31083;SDS011;36333;51.382;0.016;2022-11-25T10:38:36;39.75;;;4.72;;
31083;SDS011;36333;51.382;0.016;2022-11-25T10:41:12;26.35;;;3.58;;
31083;SDS011;36333;51.382;0.016;2022-11-25T10:43:48;28.85;;;3.30;;
31083;SDS011;36333;51.382;0.016;2022-11-25T10:46:27;33.47;;;3.85;;
31083;SDS011;36333;51.382;0.016;2022-11-25T10:52:29;27.92;;;3.35;;
31083;SDS011;36333;51.382;0.016;2022-11-25T10:55:11;24.83;;;3.28;;
31083;SDS011;36333;51.382;0.016;2022-11-25T10:57:43;22.50;;;3.15;;
31083;SDS011;36333;51.382;0.016;2022-11-25T11:05:46;32.95;;;3.90;;
31083;SDS011;36333;51.382;0.016;2022-11-25T11:08:20;31.75;;;3.58;;
31083;SDS011;36333;51.382;0.016;2022-11-25T11:11:15;29.08;;;3.75;;
31083;SDS011;36333;51.382;0.016;2022-11-25T11:14:09;29.00;;;3.10;;
31083;SDS011;36333;51.382;0.016;2022-11-25T11:16:39;24.58;;;3.10;;
31083;SDS011;36333;51.382;0.016;2022-11-25T11:19:22;32.55;;;3.50;;
31083;SDS011;36333;51.382;0.016;2022-11-25T11:22:15;28.83;;;3.08;;
31083;SDS011;36333;51.382;0.016;2022-11-25T11:24:47;32.00;;;3.60;;
31083;SDS011;36333;51.382;0.016;2022-11-25T11:27:50;22.13;;;3.25;;
31083;SDS011;36333;51.382;0.016;2022-11-25T11:30:21;28.67;;;3.35;;
31083;SDS011;36333;51.382;0.016;2022-11-25T11:35:34;25.95;;;3.47;;
31083;SDS011;36333;51.382;0.016;2022-11-25T11:40:59;27.70;;;3.85;;
31083;SDS011;36333;51.382;0.016;2022-11-25T12:04:02;26.50;;;3.83;;
31083;SDS011;36333;51.382;0.016;2022-11-25T12:06:57;22.02;;;3.55;;
31083;SDS011;36333;51.382;0.016;2022-11-25T12:09:43;26.73;;;3.83;;
31083;SDS011;36333;51.382;0.016;2022-11-25T12:12:18;32.28;;;4.97;;
31083;SDS011;36333;51.382;0.016;2022-11-25T12:18:00;30.23;;;4.07;;
31083;SDS011;36333;51.382;0.016;2022-11-25T12:20:49;23.67;;;3.92;;
31083;SDS011;36333;51.382;0.016;2022-11-25T12:23:30;29.27;;;4.10;;
31083;SDS011;36333;51.382;0.016;2022-11-25T12:35:12;24.30;;;2.95;;
31083;SDS011;36333;51.382;0.016;2022-11-25T12:38:16;27.67;;;3.45;;
31083;SDS011;36333;51.382;0.016;2022-11-25T12:43:51;21.73;;;3.88;;
31083;SDS011;36333;51.382;0.016;2022-11-25T12:49:46;24.37;;;3.73;;
31083;SDS011;36333;51.382;0.016;2022-11-25T12:52:20;25.08;;;3.17;;
31083;SDS011;36333;51.382;0.016;2022-11-25T13:00:43;23.00;;;3.40;;
31083;SDS011;36333;51.382;0.016;2022-11-25T13:03:41;26.20;;;3.28;;
31083;SDS011;36333;51.382;0.016;2022-11-25T13:12:44;17.50;;;2.70;;
31083;SDS011;36333;51.382;0.016;2022-11-25T13:15:38;17.58;;;2.72;;
31083;SDS011;36333;51.382;0.016;2022-11-25T13:18:18;17.60;;;2.70;;
31083;SDS011;36333;51.382;0.016;2022-11-25T13:20:52;25.52;;;3.08;;
31083;SDS011;36333;51.382;0.016;2022-11-25T13:23:23;18.42;;;2.90;;
31083;SDS011;36333;51.382;0.016;2022-11-25T13:29:03;22.55;;;2.80;;
31083;SDS011;36333;51.382;0.016;2022-11-25T13:32:23;25.85;;;3.30;;
31083;SDS011;36333;51.382;0.016;2022-11-25T13:40:56;16.85;;;2.92;;
31083;SDS011;36333;51.382;0.016;2022-11-25T13:43:27;20.48;;;2.90;;
31083;SDS011;36333;51.382;0.016;2022-11-25T13:52:02;20.98;;;2.60;;
31083;SDS011;36333;51.382;0.016;2022-11-25T13:54:50;29.08;;;3.58;;
31083;SDS011;36333;51.382;0.016;2022-11-25T13:57:29;19.20;;;3.70;;
31083;SDS011;36333;51.382;0.016;2022-11-25T14:00:06;20.42;;;3.08;;
31083;SDS011;36333;51.382;0.016;2022-11-25T14:02:44;25.25;;;2.88;;
31083;SDS011;36333;51.382;0.016;2022-11-25T14:05:40;19.42;;;3.22;;
31083;SDS011;36333;51.382;0.016;2022-11-25T14:21:08;22.77;;;3.45;;
31083;SDS011;36333;51.382;0.016;2022-11-25T14:26:51;20.20;;;3.10;;
31083;SDS011;36333;51.382;0.016;2022-11-25T14:37:55;21.08;;;3.55;;
31083;SDS011;36333;51.382;0.016;2022-11-25T14:43:22;19.40;;;3.63;;
31083;SDS011;36333;51.382;0.016;2022-11-25T14:48:51;26.63;;;3.65;;
31083;SDS011;36333;51.382;0.016;2022-11-25T14:51:23;25.95;;;3.65;;
31083;SDS011;36333;51.382;0.016;2022-11-25T14:53:54;24.42;;;3.75;;
31083;SDS011;36333;51.382;0.016;2022-11-25T14:56:27;29.00;;;3.72;;
31083;SDS011;36333;51.382;0.016;2022-11-25T14:58:57;31.02;;;4.30;;
31083;SDS011;36333;51.382;0.016;2022-11-25T15:01:32;26.40;;;3.90;;
31083;SDS011;36333;51.382;0.016;2022-11-25T15:04:17;26.02;;;3.78;;
31083;SDS011;36333;51.382;0.016;2022-11-25T15:06:54;22.05;;;3.55;;
31083;SDS011;36333;51.382;0.016;2022-11-25T15:09:54;25.08;;;3.92;;
31083;SDS011;36333;51.382;0.016;2022-11-25T15:12:33;23.60;;;3.92;;
31083;SDS011;36333;51.382;0.016;2022-11-25T15:15:12;22.92;;;3.40;;
31083;SDS011;36333;51.382;0.016;2022-11-25T15:20:57;28.92;;;3.95;;
31083;SDS011;36333;51.382;0.016;2022-11-25T15:23:31;24.90;;;3.55;;
31083;SDS011;36333;51.382;0.016;2022-11-25T15:26:15;29.80;;;3.60;;
31083;SDS011;36333;51.382;0.016;2022-11-25T15:29:10;22.73;;;3.47;;
31083;SDS011;36333;51.382;0.016;2022-11-25T15:31:41;27.23;;;3.53;;
31083;SDS011;36333;51.382;0.016;2022-11-25T15:34:10;31.25;;;3.80;;
31083;SDS011;36333;51.382;0.016;2022-11-25T15:36:47;30.77;;;4.15;;
31083;SDS011;36333;51.382;0.016;2022-11-25T15:39:32;23.67;;;3.35;;
31083;SDS011;36333;51.382;0.016;2022-11-25T15:42:07;27.70;;;4.00;;
31083;SDS011;36333;51.382;0.016;2022-11-25T15:44:54;27.83;;;4.03;;
31083;SDS011;36333;51.382;0.016;2022-11-25T15:47:34;33.22;;;4.30;;
31083;SDS011;36333;51.382;0.016;2022-11-25T15:50:20;26.45;;;3.15;;
31083;SDS011;36333;51.382;0.016;2022-11-25T15:52:52;35.17;;;4.43;;
31083;SDS011;36333;51.382;0.016;2022-11-25T15:55:37;33.28;;;3.88;;
31083;SDS011;36333;51.382;0.016;2022-11-25T15:58:11;26.70;;;4.32;;
31083;SDS011;36333;51.382;0.016;2022-11-25T16:03:47;30.77;;;4.85;;
31083;SDS011;36333;51.382;0.016;2022-11-25T16:06:21;24.60;;;4.15;;
31083;SDS011;36333;51.382;0.016;2022-11-25T16:08:52;34.63;;;4.88;;
31083;SDS011;36333;51.382;0.016;2022-11-25T16:11:22;30.23;;;4.70;;
31083;SDS011;36333;51.382;0.016;2022-11-25T16:16:59;28.17;;;3.90;;
31083;SDS011;36333;51.382;0.016;2022-11-25T16:19:41;30.35;;;4.28;;
31083;SDS011;36333;51.382;0.016;2022-11-25T16:22:15;31.90;;;3.83;;
31083;SDS011;36333;51.382;0.016;2022-11-25T16:24:48;32.92;;;3.90;;
31083;SDS011;36333;51.382;0.016;2022-11-25T16:27:28;32.63;;;4.30;;
31083;SDS011;36333;51.382;0.016;2022-11-25T16:32:42;21.95;;;3.53;;
31083;SDS011;36333;51.382;0.016;2022-11-25T16:37:41;35.85;;;3.55;;
31083;SDS011;36333;51.382;0.016;2022-11-25T16:40:16;27.75;;;3.80;;
31083;SDS011;36333;51.382;0.016;2022-11-25T16:42:46;40.90;;;4.50;;
31083;SDS011;36333;51.382;0.016;2022-11-25T16:45:18;32.25;;;4.18;;
31083;SDS011;36333;51.382;0.016;2022-11-25T16:47:53;42.45;;;4.63;;
31083;SDS011;36333;51.382;0.016;2022-11-25T16:50:21;49.65;;;5.88;;
31083;SDS011;36333;51.382;0.016;2022-11-25T16:52:49;40.63;;;4.85;;
31083;SDS011;36333;51.382;0.016;2022-11-25T16:55:16;38.30;;;5.13;;
31083;SDS011;36333;51.382;0.016;2022-11-25T16:57:44;26.98;;;5.30;;
31083;SDS011;36333;51.382;0.016;2022-11-25T17:00:13;37.88;;;5.72;;
31083;SDS011;36333;51.382;0.016;2022-11-25T17:02:43;30.85;;;5.03;;
31083;SDS011;36333;51.382;0.016;2022-11-25T17:07:51;31.48;;;5.40;;
31083;SDS011;36333;51.382;0.016;2022-11-25T17:10:22;32.42;;;5.70;;
31083;SDS011;36333;51.382;0.016;2022-11-25T17:12:57;47.30;;;7.38;;
31083;SDS011;36333;51.382;0.016;2022-11-25T17:16:10;46.88;;;7.13;;
31083;SDS011;36333;51.382;0.016;2022-11-25T17:18:52;47.40;;;6.75;;
31083;SDS011;36333;51.382;0.016;2022-11-25T17:21:26;44.50;;;6.90;;
31083;SDS011;36333;51.382;0.016;2022-11-25T17:24:44;38.00;;;5.15;;
31083;SDS011;36333;51.382;0.016;2022-11-25T17:27:56;43.90;;;5.45;;
31083;SDS011;36333;51.382;0.016;2022-11-25T17:34:17;47.88;;;5.55;;
31083;SDS011;36333;51.382;0.016;2022-11-25T17:44:27;31.75;;;4.38;;
31083;SDS011;36333;51.382;0.016;2022-11-25T17:51:10;37.22;;;4.85;;
31083;SDS011;36333;51.382;0.016;2022-11-25T17:53:59;39.08;;;4.38;;
31083;SDS011;36333;51.382;0.016;2022-11-25T18:06:03;40.65;;;5.68;;
31083;SDS011;36333;51.382;0.016;2022-11-25T18:08:40;35.90;;;6.70;;
31083;SDS011;36333;51.382;0.016;2022-11-25T18:20:33;36.53;;;5.78;;
31083;SDS011;36333;51.382;0.016;2022-11-25T18:23:14;37.95;;;4.85;;
31083;SDS011;36333;51.382;0.016;2022-11-25T18:25:47;36.90;;;5.85;;
31083;SDS011;36333;51.382;0.016;2022-11-25T18:28:24;34.03;;;4.57;;
31083;SDS011;36333;51.382;0.016;2022-11-25T18:31:20;37.63;;;4.78;;
31083;SDS011;36333;51.382;0.016;2022-11-25T18:33:55;37.47;;;4.90;;
31083;SDS011;36333;51.382;0.016;2022-11-25T18:36:23;40.75;;;4.85;;
31083;SDS011;36333;51.382;0.016;2022-11-25T18:39:32;33.75;;;4.70;;
31083;SDS011;36333;51.382;0.016;2022-11-25T18:42:04;37.63;;;5.45;;
31083;SDS011;36333;51.382;0.016;2022-11-25T18:44:38;36.60;;;5.45;;